createdAt,value
2022-12-09T00:00:16.333Z,27.80
2022-12-09T00:02:47.977Z,25.52
2022-12-09T00:05:19.665Z,23.23
2022-12-09T00:07:51.578Z,25.55
2022-12-09T00:10:26.356Z,23.77
2022-12-09T00:13:00.911Z,23.45
2022-12-09T00:15:32.679Z,24.15
2022-12-09T00:18:05.872Z,25.25
2022-12-09T00:20:38.523Z,21.42
2022-12-09T00:23:10.215Z,23.92
2022-12-09T00:25:42.188Z,22.58
2022-12-09T00:28:13.797Z,20.90
2022-12-09T00:30:45.747Z,22.00
2022-12-09T00:33:17.400Z,21.95
2022-12-09T00:35:48.997Z,22.13
2022-12-09T00:38:20.832Z,22.00
2022-12-09T00:40:52.487Z,22.38
2022-12-09T00:43:24.233Z,28.05
2022-12-09T00:45:55.959Z,23.45
2022-12-09T00:48:28.361Z,22.73
2022-12-09T00:51:01.132Z,22.00
2022-12-09T00:53:33.354Z,24.60
2022-12-09T00:56:05.956Z,20.23
2022-12-09T00:58:37.726Z,24.40
2022-12-09T01:01:09.731Z,20.30
2022-12-09T01:03:41.847Z,26.88
2022-12-09T01:06:18.170Z,30.98
2022-12-09T01:08:51.417Z,26.20
2022-12-09T01:11:28.378Z,29.20
2022-12-09T01:14:01.676Z,31.05
2022-12-09T01:16:35.062Z,29.60
2022-12-09T01:19:09.474Z,31.33
2022-12-09T01:21:41.577Z,28.98
2022-12-09T01:24:14.167Z,28.02
2022-12-09T01:26:46.100Z,24.35
2022-12-09T01:29:18.233Z,27.30
2022-12-09T01:31:50.062Z,26.13
2022-12-09T01:34:22.094Z,30.13
2022-12-09T01:36:53.937Z,24.63
2022-12-09T01:39:25.751Z,25.58
2022-12-09T01:41:57.721Z,24.60
2022-12-09T01:44:34.499Z,30.10
2022-12-09T01:47:22.089Z,28.95
2022-12-09T01:49:53.921Z,27.13
2022-12-09T01:52:25.698Z,30.42
2022-12-09T01:54:58.484Z,27.88
2022-12-09T01:57:30.315Z,29.73
2022-12-09T02:00:01.991Z,31.08
2022-12-09T02:02:37.039Z,32.92
2022-12-09T02:05:09.492Z,31.75
2022-12-09T02:07:46.243Z,36.33
2022-12-09T02:10:20.445Z,28.65
2022-12-09T02:13:40.248Z,26.90
2022-12-09T02:16:17.535Z,30.48
2022-12-09T02:19:09.087Z,28.35
2022-12-09T02:22:01.247Z,33.80
2022-12-09T02:24:43.451Z,32.78
2022-12-09T02:27:37.694Z,33.17
2022-12-09T02:30:17.138Z,33.95
2022-12-09T02:33:17.564Z,31.98
2022-12-09T02:35:56.100Z,30.75
2022-12-09T02:38:32.949Z,30.45
2022-12-09T02:41:12.379Z,32.58
2022-12-09T02:43:54.386Z,29.10
2022-12-09T02:46:34.298Z,29.23
2022-12-09T02:49:09.352Z,29.67
2022-12-09T02:51:45.791Z,30.30
2022-12-09T02:54:20.536Z,32.33
2022-12-09T02:56:57.110Z,30.00
2022-12-09T02:59:36.570Z,31.90
2022-12-09T03:02:12.336Z,29.42
2022-12-09T03:04:59.317Z,31.98
2022-12-09T03:08:03.394Z,26.35
2022-12-09T03:10:44.652Z,30.30
2022-12-09T03:13:25.578Z,29.33
2022-12-09T03:16:11.691Z,33.10
2022-12-09T03:18:47.799Z,33.40
2022-12-09T03:21:22.615Z,34.80
2022-12-09T03:23:57.014Z,35.83
2022-12-09T03:26:32.312Z,36.90
2022-12-09T03:29:11.689Z,31.40
2022-12-09T03:31:44.407Z,30.98
2022-12-09T03:34:22.761Z,31.35
2022-12-09T03:36:55.182Z,31.30
2022-12-09T03:39:32.248Z,34.58
2022-12-09T03:42:11.014Z,30.30
2022-12-09T03:44:52.411Z,29.58
2022-12-09T03:47:24.441Z,33.08
2022-12-09T03:49:56.323Z,34.00
2022-12-09T03:53:02.020Z,30.65
2022-12-09T03:55:36.446Z,34.80
2022-12-09T03:58:10.490Z,33.67
2022-12-09T04:00:43.063Z,30.45
2022-12-09T04:03:17.865Z,31.08
2022-12-09T04:05:49.908Z,32.75
2022-12-09T04:08:21.588Z,31.48
2022-12-09T04:10:53.427Z,29.52
2022-12-09T04:13:25.025Z,28.50
2022-12-09T04:15:56.815Z,31.40
2022-12-09T04:18:28.857Z,32.15
2022-12-09T04:21:01.010Z,32.35
2022-12-09T04:23:35.548Z,34.92
2022-12-09T04:26:14.383Z,29.92
2022-12-09T04:28:46.087Z,31.70
2022-12-09T04:31:19.832Z,32.00
2022-12-09T04:33:51.495Z,29.38
2022-12-09T04:36:26.341Z,30.52
2022-12-09T04:41:29.684Z,30.67
2022-12-09T04:44:01.933Z,31.83
2022-12-09T04:46:34.137Z,28.55
2022-12-09T04:49:06.272Z,28.00
2022-12-09T04:51:40.186Z,29.70
2022-12-09T04:54:13.842Z,28.40
2022-12-09T04:56:45.614Z,30.67
2022-12-09T04:59:18.702Z,27.42
2022-12-09T05:01:53.430Z,30.75
2022-12-09T05:04:25.634Z,26.70
2022-12-09T05:06:57.855Z,27.90
2022-12-09T05:09:31.059Z,30.08
2022-12-09T05:12:02.949Z,29.50
2022-12-09T05:14:35.039Z,31.98
2022-12-09T05:17:07.537Z,28.77
2022-12-09T05:19:39.386Z,29.98
2022-12-09T05:22:11.172Z,33.42
2022-12-09T05:24:44.504Z,29.65
2022-12-09T05:27:16.334Z,34.90
2022-12-09T05:29:48.790Z,31.33
2022-12-09T05:32:21.566Z,29.65
2022-12-09T05:34:53.379Z,28.10
2022-12-09T05:37:25.203Z,31.73
2022-12-09T05:39:58.214Z,28.88
2022-12-09T05:42:29.991Z,35.42
2022-12-09T05:45:01.778Z,31.65
2022-12-09T05:47:33.974Z,28.50
2022-12-09T05:50:08.671Z,27.77
2022-12-09T05:55:12.844Z,33.72
2022-12-09T05:57:51.063Z,40.35
2022-12-09T06:00:23.230Z,45.35
2022-12-09T06:02:55.231Z,53.33
2022-12-09T06:05:27.333Z,59.85
2022-12-09T06:08:03.768Z,59.05
2022-12-09T06:10:44.332Z,44.22
2022-12-09T06:13:16.460Z,50.17
2022-12-09T06:15:48.508Z,50.75
2022-12-09T06:18:22.180Z,48.90
2022-12-09T06:20:54.100Z,54.58
2022-12-09T06:23:29.363Z,52.28
2022-12-09T06:26:00.977Z,53.80
2022-12-09T06:28:33.409Z,50.97
2022-12-09T06:31:08.216Z,58.67
2022-12-09T06:33:57.984Z,53.70
2022-12-09T06:36:33.866Z,49.33
2022-12-09T06:39:10.073Z,56.15
2022-12-09T06:41:43.477Z,52.78
2022-12-09T06:44:23.076Z,53.28
2022-12-09T06:46:58.494Z,47.00
2022-12-09T06:52:01.938Z,46.25
2022-12-09T06:54:38.339Z,33.63
2022-12-09T06:57:10.256Z,34.47
2022-12-09T06:59:42.213Z,36.25
2022-12-09T07:02:15.159Z,33.80
2022-12-09T07:04:55.591Z,36.00
2022-12-09T07:07:28.706Z,35.47
2022-12-09T07:10:04.259Z,35.05
2022-12-09T07:12:38.949Z,32.13
2022-12-09T07:15:12.201Z,36.67
2022-12-09T07:17:44.642Z,32.25
2022-12-09T07:20:17.878Z,33.25
2022-12-09T07:22:50.354Z,38.28
2022-12-09T07:25:22.700Z,28.77
2022-12-09T07:27:54.634Z,33.45
2022-12-09T07:30:26.344Z,30.23
2022-12-09T07:32:59.977Z,33.78
2022-12-09T07:35:35.415Z,35.70
2022-12-09T07:38:07.423Z,30.90
2022-12-09T07:40:43.243Z,31.05
2022-12-09T07:43:17.466Z,29.00
2022-12-09T07:45:55.867Z,29.60
2022-12-09T07:48:30.586Z,28.33
2022-12-09T07:51:04.156Z,28.13
2022-12-09T07:53:37.429Z,27.10
2022-12-09T07:56:12.650Z,32.58
2022-12-09T07:58:48.747Z,29.08
2022-12-09T08:04:30.815Z,33.13
2022-12-09T08:07:04.667Z,29.08
2022-12-09T08:09:36.868Z,27.10
2022-12-09T08:12:11.695Z,30.33
2022-12-09T08:17:18.650Z,29.95
2022-12-09T08:19:50.902Z,29.30
2022-12-09T08:22:25.471Z,26.88
2022-12-09T08:24:57.314Z,26.77
2022-12-09T08:27:29.635Z,29.80
2022-12-09T08:30:01.761Z,28.55
2022-12-09T08:32:39.300Z,36.00
2022-12-09T08:35:15.654Z,32.63
2022-12-09T08:37:48.510Z,36.58
2022-12-09T08:40:22.996Z,32.13
2022-12-09T08:42:54.930Z,33.00
2022-12-09T08:45:26.862Z,30.52
2022-12-09T08:47:58.821Z,29.95
2022-12-09T08:50:31.076Z,34.72
2022-12-09T08:53:03.168Z,31.90
2022-12-09T08:55:39.477Z,42.00
2022-12-09T08:58:13.506Z,37.45
2022-12-09T09:00:45.471Z,36.37
2022-12-09T09:03:17.626Z,37.63
2022-12-09T09:05:50.419Z,39.33
2022-12-09T09:08:22.198Z,36.60
2022-12-09T09:10:55.109Z,34.50
2022-12-09T09:13:28.018Z,39.70
2022-12-09T09:16:02.681Z,40.30
2022-12-09T09:21:12.363Z,39.83
2022-12-09T09:23:46.112Z,33.38
2022-12-09T09:26:31.096Z,35.53
2022-12-09T09:29:02.884Z,37.45
2022-12-09T09:31:38.203Z,41.13
2022-12-09T09:34:13.269Z,39.53
2022-12-09T09:36:45.663Z,37.95
2022-12-09T09:39:24.010Z,37.45
2022-12-09T09:42:04.613Z,41.08
2022-12-09T09:44:51.466Z,35.60
2022-12-09T09:47:59.445Z,33.25
2022-12-09T09:50:33.697Z,35.38
2022-12-09T09:53:27.562Z,31.92
2022-12-09T09:56:03.585Z,38.17
2022-12-09T09:58:45.792Z,30.58
2022-12-09T10:01:20.033Z,27.08
2022-12-09T10:04:13.410Z,26.88
2022-12-09T10:07:20.150Z,26.17
2022-12-09T10:10:02.239Z,26.38
2022-12-09T10:13:02.869Z,25.58
2022-12-09T10:16:31.864Z,29.20
2022-12-09T10:19:43.665Z,27.15
2022-12-09T10:22:21.355Z,25.10
2022-12-09T10:24:57.165Z,25.40
2022-12-09T10:27:44.026Z,27.85
2022-12-09T10:30:20.980Z,31.63
2022-12-09T10:32:56.322Z,27.20
2022-12-09T10:35:33.754Z,27.33
2022-12-09T10:38:11.857Z,25.52
2022-12-09T10:40:47.145Z,29.00
2022-12-09T10:43:39.552Z,30.17
2022-12-09T10:46:21.403Z,27.17
2022-12-09T10:48:58.807Z,26.92
2022-12-09T10:51:39.584Z,28.10
2022-12-09T10:54:40.107Z,31.50
2022-12-09T10:57:11.832Z,27.73
2022-12-09T11:00:26.102Z,29.70
2022-12-09T11:03:03.546Z,30.67
2022-12-09T11:05:35.964Z,29.65
2022-12-09T11:08:08.972Z,33.55
2022-12-09T11:10:50.250Z,36.30
2022-12-09T11:16:32.335Z,35.53
2022-12-09T11:19:05.141Z,40.17
2022-12-09T11:21:37.214Z,40.85
2022-12-09T11:24:24.941Z,42.03
2022-12-09T11:26:58.060Z,38.63
2022-12-09T11:29:30.482Z,40.65
2022-12-09T11:32:05.706Z,40.20
2022-12-09T11:34:37.838Z,38.53
2022-12-09T11:37:11.453Z,34.47
2022-12-09T11:39:51.046Z,33.72
2022-12-09T11:42:32.785Z,38.80
2022-12-09T11:45:18.045Z,40.83
2022-12-09T11:48:22.935Z,33.33
2022-12-09T11:50:51.759Z,38.53
2022-12-09T11:53:40.215Z,39.30
2022-12-09T11:56:20.187Z,37.95
2022-12-09T11:58:59.537Z,42.58
2022-12-09T12:02:10.132Z,38.63
2022-12-09T12:05:08.027Z,36.85
2022-12-09T12:07:52.575Z,39.03
2022-12-09T12:10:28.599Z,36.40
2022-12-09T12:13:33.828Z,37.58
2022-12-09T12:16:17.180Z,39.25
2022-12-09T12:19:02.977Z,37.40
2022-12-09T12:21:40.594Z,39.78
2022-12-09T12:24:22.135Z,37.58
2022-12-09T12:26:57.448Z,38.42
2022-12-09T12:30:04.464Z,41.00
2022-12-09T12:33:11.780Z,36.40
2022-12-09T12:35:53.953Z,36.97
2022-12-09T12:38:52.661Z,34.90
2022-12-09T12:42:00.515Z,36.28
2022-12-09T12:45:16.931Z,35.55
2022-12-09T12:48:07.398Z,38.80
2022-12-09T12:50:57.923Z,37.40
2022-12-09T12:54:09.216Z,37.97
2022-12-09T12:57:19.890Z,36.65
2022-12-09T13:00:07.327Z,33.92
2022-12-09T13:02:54.105Z,36.95
2022-12-09T13:05:38.545Z,41.05
2022-12-09T13:08:20.861Z,39.92
2022-12-09T13:11:01.961Z,35.03
2022-12-09T13:13:59.759Z,42.05
2022-12-09T13:16:36.688Z,39.33
2022-12-09T13:19:23.876Z,40.45
2022-12-09T13:21:56.601Z,39.17
2022-12-09T13:25:14.672Z,39.80
2022-12-09T13:28:00.383Z,38.78
2022-12-09T13:30:51.144Z,41.38
2022-12-09T13:33:59.140Z,40.65
2022-12-09T13:36:40.381Z,33.63
2022-12-09T13:39:58.660Z,47.28
2022-12-09T13:42:48.814Z,49.65
2022-12-09T13:45:34.045Z,53.35
2022-12-09T13:48:17.316Z,43.53
2022-12-09T13:50:57.362Z,43.88
2022-12-09T13:53:58.414Z,44.17
2022-12-09T13:56:36.674Z,49.50
2022-12-09T13:59:23.663Z,48.65
2022-12-09T14:02:17.621Z,45.88
2022-12-09T14:04:59.838Z,46.42
2022-12-09T14:07:43.054Z,43.25
2022-12-09T14:10:45.650Z,47.63
2022-12-09T14:13:32.426Z,46.75
2022-12-09T14:16:13.166Z,50.08
2022-12-09T14:18:44.941Z,52.28
2022-12-09T14:21:19.367Z,47.67
2022-12-09T14:24:20.266Z,48.00
2022-12-09T14:27:10.117Z,52.15
2022-12-09T14:29:55.364Z,49.22
2022-12-09T14:35:10.538Z,43.80
2022-12-09T14:38:02.172Z,43.63
2022-12-09T14:40:42.836Z,43.33
2022-12-09T14:43:32.975Z,48.00
2022-12-09T14:46:19.218Z,41.17
2022-12-09T14:49:12.209Z,43.55
2022-12-09T14:52:11.329Z,46.28
2022-12-09T14:54:45.879Z,39.95
2022-12-09T14:57:28.748Z,48.22
2022-12-09T15:00:00.327Z,48.92
2022-12-09T15:02:32.088Z,47.30
2022-12-09T15:05:15.631Z,43.90
2022-12-09T15:07:48.560Z,44.45
2022-12-09T15:10:38.700Z,44.35
2022-12-09T15:13:10.372Z,49.10
2022-12-09T15:15:42.916Z,43.08
2022-12-09T15:18:21.713Z,43.70
2022-12-09T15:20:59.255Z,41.35
2022-12-09T15:23:34.682Z,43.17
2022-12-09T15:26:44.229Z,43.75
2022-12-09T15:29:22.844Z,41.50
2022-12-09T15:31:54.663Z,41.67
2022-12-09T15:34:26.753Z,44.95
2022-12-09T15:37:08.723Z,47.45
2022-12-09T15:39:50.331Z,42.63
2022-12-09T15:42:27.396Z,46.35
2022-12-09T15:45:11.894Z,43.42
2022-12-09T15:47:48.947Z,41.55
2022-12-09T15:50:39.108Z,42.85
2022-12-09T15:53:26.613Z,41.67
2022-12-09T15:56:07.226Z,41.80
2022-12-09T15:58:51.395Z,45.67
2022-12-09T16:01:30.302Z,40.30
2022-12-09T16:04:04.807Z,41.97
2022-12-09T16:06:40.883Z,42.25
2022-12-09T16:09:15.773Z,37.28
2022-12-09T16:11:54.871Z,40.10
2022-12-09T16:14:40.052Z,39.45
2022-12-09T16:17:54.651Z,43.90
2022-12-09T16:20:36.370Z,39.63
2022-12-09T16:23:20.680Z,42.15
2022-12-09T16:26:03.180Z,37.13
2022-12-09T16:28:40.052Z,44.35
2022-12-09T16:31:18.644Z,43.33
2022-12-09T16:33:51.459Z,42.80
2022-12-09T16:36:31.779Z,42.72
2022-12-09T16:39:08.641Z,44.00
2022-12-09T16:42:00.641Z,39.33
2022-12-09T16:44:37.056Z,38.78
2022-12-09T16:47:16.402Z,40.85
2022-12-09T16:49:48.778Z,46.72
2022-12-09T16:52:30.151Z,43.83
2022-12-09T16:55:03.388Z,43.88
2022-12-09T16:57:35.536Z,39.95
2022-12-09T17:00:07.872Z,56.40
2022-12-09T17:02:42.662Z,47.05
2022-12-09T17:07:46.167Z,47.10
2022-12-09T17:10:18.143Z,45.53
2022-12-09T17:12:54.121Z,39.67
2022-12-09T17:15:25.828Z,43.80
2022-12-09T17:17:57.479Z,44.88
2022-12-09T17:20:33.751Z,44.15
2022-12-09T17:23:05.710Z,38.72
2022-12-09T17:25:37.265Z,42.90
2022-12-09T17:28:09.184Z,39.13
2022-12-09T17:30:40.778Z,44.00
2022-12-09T17:33:12.408Z,45.65
2022-12-09T17:35:44.755Z,41.10
2022-12-09T17:38:16.792Z,44.60
2022-12-09T17:40:48.719Z,45.38
2022-12-09T17:43:23.320Z,47.45
2022-12-09T17:45:55.163Z,48.47
2022-12-09T17:48:28.375Z,47.08
2022-12-09T17:51:05.250Z,47.97
2022-12-09T17:53:42.262Z,45.38
2022-12-09T17:56:17.902Z,46.80
2022-12-09T17:59:03.098Z,47.95
2022-12-09T18:01:40.371Z,46.50
2022-12-09T18:04:13.149Z,41.30
2022-12-09T18:06:46.029Z,44.53
2022-12-09T18:09:19.026Z,43.15
2022-12-09T18:11:51.855Z,42.58
2022-12-09T18:14:26.308Z,41.45
2022-12-09T18:17:05.117Z,41.67
2022-12-09T18:19:37.038Z,41.13
2022-12-09T18:22:08.724Z,43.45
2022-12-09T18:24:40.660Z,44.85
2022-12-09T18:27:12.243Z,45.05
2022-12-09T18:29:43.874Z,44.05
2022-12-09T18:32:17.396Z,42.15
2022-12-09T18:34:49.330Z,45.72
2022-12-09T18:37:23.657Z,44.42
2022-12-09T18:42:29.910Z,44.47
2022-12-09T18:45:04.372Z,46.35
2022-12-09T18:47:36.033Z,48.35
2022-12-09T18:50:08.329Z,41.65
2022-12-09T18:52:41.220Z,44.63
2022-12-09T18:55:13.843Z,48.80
2022-12-09T18:57:45.408Z,42.55
2022-12-09T19:00:17.592Z,41.33
2022-12-09T19:02:49.262Z,35.42
2022-12-09T19:05:22.208Z,37.42
2022-12-09T19:07:53.869Z,37.13
2022-12-09T19:10:25.571Z,40.92
2022-12-09T19:12:57.312Z,35.28
2022-12-09T19:15:29.249Z,39.15
2022-12-09T19:18:01.672Z,36.65
2022-12-09T19:20:35.492Z,36.65
2022-12-09T19:23:08.950Z,37.60
2022-12-09T19:25:42.227Z,38.28
2022-12-09T19:28:16.434Z,40.28
2022-12-09T19:30:49.896Z,39.67
2022-12-09T19:33:21.744Z,42.05
2022-12-09T19:35:53.386Z,40.30
2022-12-09T19:38:27.802Z,40.35
2022-12-09T19:41:01.787Z,41.05
2022-12-09T19:43:34.228Z,40.22
2022-12-09T19:46:08.599Z,37.38
2022-12-09T19:48:44.274Z,38.10
2022-12-09T19:51:17.689Z,37.67
2022-12-09T19:53:52.773Z,36.65
2022-12-09T19:56:25.289Z,35.05
2022-12-09T19:58:58.279Z,37.13
2022-12-09T20:01:35.593Z,34.08
2022-12-09T20:04:48.028Z,34.03
2022-12-09T20:07:15.275Z,32.65
2022-12-09T20:09:50.082Z,38.13
2022-12-09T20:12:25.695Z,36.10
2022-12-09T20:14:57.638Z,37.30
2022-12-09T20:17:29.388Z,35.40
2022-12-09T20:20:01.035Z,33.55
2022-12-09T20:22:32.705Z,34.10
2022-12-09T20:25:05.527Z,33.00
2022-12-09T20:27:37.216Z,34.50
2022-12-09T20:30:09.666Z,38.08
2022-12-09T20:32:43.879Z,36.72
2022-12-09T20:35:16.004Z,33.70
2022-12-09T20:37:47.899Z,36.15
2022-12-09T20:40:19.496Z,36.83
2022-12-09T20:42:51.137Z,34.05
2022-12-09T20:45:22.761Z,37.55
2022-12-09T20:47:54.387Z,32.60
2022-12-09T20:50:25.983Z,33.85
2022-12-09T20:53:01.285Z,30.70
2022-12-09T20:55:32.845Z,34.42
2022-12-09T20:58:08.636Z,39.92
2022-12-09T21:00:40.621Z,34.45
2022-12-09T21:03:12.265Z,32.78
2022-12-09T21:05:43.931Z,32.88
2022-12-09T21:08:16.538Z,32.50
2022-12-09T21:10:48.510Z,31.88
2022-12-09T21:13:20.188Z,34.67
2022-12-09T21:15:51.987Z,34.72
2022-12-09T21:18:23.688Z,115.65
2022-12-09T21:20:57.632Z,40.45
2022-12-09T21:23:34.848Z,33.15
2022-12-09T21:26:15.406Z,32.72
2022-12-09T21:28:48.155Z,35.90
2022-12-09T21:31:27.127Z,36.80
2022-12-09T21:34:01.824Z,34.58
2022-12-09T21:36:37.160Z,33.80
2022-12-09T21:39:12.184Z,35.30
2022-12-09T21:41:44.355Z,39.90
2022-12-09T21:44:20.130Z,35.78
2022-12-09T21:46:52.106Z,34.33
2022-12-09T21:49:23.937Z,34.60
2022-12-09T21:51:55.504Z,35.30
2022-12-09T21:54:27.217Z,37.78
2022-12-09T21:56:59.272Z,38.88
2022-12-09T21:59:32.284Z,36.08
2022-12-09T22:02:04.004Z,35.05
2022-12-09T22:04:35.727Z,31.73
2022-12-09T22:07:07.297Z,36.00
2022-12-09T22:09:38.957Z,34.22
2022-12-09T22:12:10.531Z,34.72
2022-12-09T22:14:42.241Z,32.20
2022-12-09T22:17:14.174Z,35.90
2022-12-09T22:19:45.862Z,36.72
2022-12-09T22:22:17.461Z,35.25
2022-12-09T22:24:49.264Z,29.77
2022-12-09T22:27:20.878Z,36.60
2022-12-09T22:29:55.244Z,32.30
2022-12-09T22:32:37.873Z,35.60
2022-12-09T22:35:12.443Z,36.22
2022-12-09T22:37:44.456Z,33.17
2022-12-09T22:40:16.621Z,34.47
2022-12-09T22:42:48.204Z,30.48
2022-12-09T22:45:22.569Z,33.80
2022-12-09T22:47:54.872Z,33.70
2022-12-09T22:50:26.547Z,36.03
2022-12-09T22:52:58.152Z,36.30
2022-12-09T22:55:29.804Z,36.15
2022-12-09T22:58:01.444Z,36.17
2022-12-09T23:00:35.779Z,36.47
2022-12-09T23:03:07.808Z,37.50
2022-12-09T23:05:39.441Z,34.72
2022-12-09T23:08:11.305Z,33.97
2022-12-09T23:10:43.036Z,35.25
2022-12-09T23:13:14.583Z,37.08
2022-12-09T23:15:46.242Z,37.17
2022-12-09T23:18:18.171Z,36.33
2022-12-09T23:20:50.608Z,34.42
2022-12-09T23:23:22.190Z,37.25
2022-12-09T23:25:53.832Z,34.38
2022-12-09T23:28:26.976Z,34.10
2022-12-09T23:31:02.545Z,34.72
2022-12-09T23:33:35.336Z,36.83
2022-12-09T23:36:08.724Z,34.88
2022-12-09T23:38:40.766Z,35.60
2022-12-09T23:41:12.724Z,35.97
2022-12-09T23:43:46.228Z,35.10
2022-12-09T23:46:26.192Z,37.47
2022-12-09T23:49:07.738Z,40.90
2022-12-09T23:51:46.212Z,32.75
2022-12-09T23:54:18.741Z,41.28
2022-12-09T23:56:53.428Z,35.30
2022-12-09T23:59:25.291Z,37.15
